Time;durP1;ratioP1;P1;durP2;ratioP2;P2;SDS_P1;SDS_P2;PMS_P1;PMS_P2;Temp;Humidity;BMP_temperature;BMP_pressure;BME280_temperature;BME280_humidity;BME280_pressure;Samples;Min_cycle;Max_cycle;Signal;HPM_P1;HPM_P2
2022/08/20 00:00:20;;;;;;;5.70;3.90;;;23.80;99.90;;;;;;5034127;28;20569;-73
2022/08/20 00:02:49;;;;;;;3.37;3.00;;;23.80;99.90;;;;;;5033727;28;20172;-73
2022/08/20 00:05:20;;;;;;;5.47;4.87;;;23.70;99.90;;;;;;5032950;28;20675;-73
2022/08/20 00:07:45;;;;;;;6.90;4.73;;;23.70;99.90;;;;;;5034027;28;20695;-73
2022/08/20 00:10:11;;;;;;;4.30;3.90;;;23.70;99.90;;;;;;5033929;28;21192;-73
2022/08/20 00:12:42;;;;;;;5.27;3.40;;;23.70;99.90;;;;;;5033653;28;20570;-73
2022/08/20 00:15:08;;;;;;;4.60;3.47;;;23.70;99.90;;;;;;5033965;28;20170;-73
2022/08/20 00:17:37;;;;;;;7.17;5.63;;;23.70;99.90;;;;;;5015784;28;20622;-74
2022/08/20 00:20:09;;;;;;;4.53;4.13;;;23.60;99.90;;;;;;5033720;28;20568;-73
2022/08/20 00:22:34;;;;;;;4.13;3.40;;;23.60;99.90;;;;;;5033481;28;20583;-73
2022/08/20 00:25:01;;;;;;;4.43;4.03;;;23.60;99.90;;;;;;5033850;28;20568;-73
2022/08/20 00:27:27;;;;;;;6.60;3.90;;;23.60;99.90;;;;;;5033805;28;20182;-73
2022/08/20 00:29:53;;;;;;;6.67;4.37;;;23.50;99.90;;;;;;5016170;28;20576;-73
2022/08/20 00:32:19;;;;;;;5.07;4.07;;;23.50;99.90;;;;;;5015626;28;20166;-73
2022/08/20 00:34:44;;;;;;;5.77;4.67;;;23.40;99.90;;;;;;5033524;28;20177;-73
2022/08/20 00:37:10;;;;;;;5.33;4.60;;;23.40;99.90;;;;;;5033346;28;20224;-73
2022/08/20 00:39:36;;;;;;;6.70;4.80;;;23.30;99.90;;;;;;5033786;28;20169;-73
2022/08/20 00:42:02;;;;;;;5.50;3.97;;;23.20;99.90;;;;;;5015193;28;21135;-74
2022/08/20 00:44:29;;;;;;;4.57;3.77;;;23.10;99.90;;;;;;5033389;28;20162;-73
2022/08/20 00:46:54;;;;;;;4.00;2.97;;;23.10;99.90;;;;;;5033349;28;20940;-73
2022/08/20 00:49:27;;;;;;;3.03;2.67;;;23.00;99.90;;;;;;5033556;28;20576;-73
2022/08/20 00:51:59;;;;;;;2.60;2.10;;;22.90;99.90;;;;;;5015173;28;20658;-72
2022/08/20 00:54:36;;;;;;;3.20;2.70;;;22.90;99.90;;;;;;5015605;28;21046;-73
2022/08/20 00:57:08;;;;;;;3.60;2.57;;;22.80;99.90;;;;;;5015367;28;20636;-72
2022/08/20 00:59:38;;;;;;;2.80;2.17;;;22.80;99.90;;;;;;5015500;28;20572;-73
2022/08/20 01:02:10;;;;;;;2.87;2.60;;;22.80;99.90;;;;;;5032851;28;20581;-72
2022/08/20 01:04:37;;;;;;;2.80;2.50;;;22.80;99.90;;;;;;5033067;28;20572;-72
2022/08/20 01:07:04;;;;;;;3.93;2.60;;;22.70;99.90;;;;;;5015216;28;21178;-73
2022/08/20 01:09:31;;;;;;;3.00;2.70;;;22.70;99.90;;;;;;5015039;28;20565;-72
2022/08/20 01:11:57;;;;;;;3.53;2.60;;;22.60;99.90;;;;;;5014837;28;20584;-73
2022/08/20 01:14:27;;;;;;;2.93;2.63;;;22.60;99.90;;;;;;5032902;28;20571;-73
2022/08/20 01:17:01;;;;;;;2.73;2.13;;;22.60;99.90;;;;;;5014478;28;20229;-73
2022/08/20 01:19:43;;;;;;;3.57;2.60;;;22.50;99.90;;;;;;5032859;28;21109;-73
2022/08/20 01:25:03;;;;;;;3.30;2.33;;;22.50;99.90;;;;;;5032643;28;20564;-73
2022/08/20 01:27:31;;;;;;;3.70;3.00;;;22.50;99.90;;;;;;5032604;28;20600;-72
2022/08/20 01:29:57;;;;;;;2.80;2.27;;;22.40;99.90;;;;;;5032411;28;20580;-72
2022/08/20 01:32:23;;;;;;;3.87;2.40;;;22.40;99.90;;;;;;5028975;28;20593;-73
2022/08/20 01:34:49;;;;;;;2.70;2.40;;;22.40;99.90;;;;;;5023803;28;20650;-72
2022/08/20 01:37:15;;;;;;;3.23;2.70;;;22.40;99.90;;;;;;5007051;28;20646;-73
2022/08/20 01:39:41;;;;;;;4.03;2.57;;;22.40;99.90;;;;;;5013365;28;20264;-73
2022/08/20 01:42:14;;;;;;;2.73;2.30;;;22.40;99.90;;;;;;5006163;28;20584;-73
2022/08/20 01:44:42;;;;;;;3.50;2.40;;;22.40;99.90;;;;;;5032495;28;20573;-73
2022/08/20 01:47:18;;;;;;;4.73;2.80;;;22.40;99.90;;;;;;5014541;28;20612;-72
2022/08/20 01:49:50;;;;;;;3.67;2.50;;;22.40;99.90;;;;;;5014627;28;20583;-72
2022/08/20 01:52:47;;;;;;;2.90;1.80;;;22.30;99.90;;;;;;5014271;28;20633;-73
2022/08/20 01:55:14;;;;;;;2.47;1.80;;;22.30;99.90;;;;;;5014321;28;21078;-73
2022/08/20 01:57:40;;;;;;;4.17;2.80;;;22.30;99.90;;;;;;5014465;28;20596;-73
2022/08/20 02:00:09;;;;;;;2.30;1.80;;;22.30;99.90;;;;;;5031855;28;20616;-73
2022/08/20 02:02:34;;;;;;;3.13;2.40;;;22.30;99.90;;;;;;5031827;28;20656;-73
2022/08/20 02:05:01;;;;;;;2.80;2.07;;;22.20;99.90;;;;;;5014435;28;20652;-73
2022/08/20 02:07:31;;;;;;;3.10;1.90;;;22.20;99.90;;;;;;5031907;28;20612;-73
2022/08/20 02:09:57;;;;;;;4.37;2.53;;;22.20;99.90;;;;;;5031898;28;21148;-73
2022/08/20 02:12:22;;;;;;;2.00;1.63;;;22.20;99.90;;;;;;5031380;28;20600;-73
2022/08/20 02:14:51;;;;;;;3.00;1.47;;;22.10;99.90;;;;;;5033457;23;20669;-79
2022/08/20 02:17:18;;;;;;;3.67;1.77;;;22.10;99.90;;;;;;4985552;28;20571;-80
2022/08/20 02:19:52;;;;;;;1.87;1.47;;;22.10;99.90;;;;;;4974584;28;21023;-80
2022/08/20 02:22:42;;;;;;;1.90;1.53;;;22.00;99.90;;;;;;4993901;28;21087;-80
2022/08/20 02:25:10;;;;;;;2.80;2.17;;;22.00;99.90;;;;;;4983581;28;20613;-80
2022/08/20 02:27:38;;;;;;;4.00;2.10;;;22.00;99.90;;;;;;4974477;28;21045;-80
2022/08/20 02:30:11;;;;;;;2.70;2.03;;;22.00;99.90;;;;;;4958365;28;20673;-80
2022/08/20 02:32:37;;;;;;;3.20;2.07;;;21.90;99.90;;;;;;4974183;28;20977;-80
2022/08/20 02:35:07;;;;;;;2.97;2.10;;;21.90;99.90;;;;;;4974454;28;20928;-79
2022/08/20 02:37:34;;;;;;;2.70;2.27;;;21.90;99.90;;;;;;4974669;28;20923;-79
2022/08/20 02:40:00;;;;;;;2.53;1.73;;;21.90;99.90;;;;;;4961544;28;20610;-79
2022/08/20 02:42:26;;;;;;;3.10;1.83;;;21.90;99.90;;;;;;4974333;28;20590;-78
2022/08/20 02:44:53;;;;;;;3.53;2.63;;;21.90;99.90;;;;;;4992053;28;20657;-79
2022/08/20 02:47:19;;;;;;;2.60;2.40;;;21.90;99.90;;;;;;4991945;28;20641;-79
2022/08/20 02:49:44;;;;;;;3.90;2.80;;;21.90;99.90;;;;;;4974805;28;20586;-79
2022/08/20 02:52:10;;;;;;;3.07;2.23;;;21.90;99.90;;;;;;4974404;28;20171;-78
2022/08/20 02:54:36;;;;;;;4.33;3.00;;;21.90;99.90;;;;;;4991944;28;20338;-79
2022/08/20 02:57:03;;;;;;;4.00;2.53;;;22.00;99.90;;;;;;4992058;28;20202;-79
2022/08/20 02:59:28;;;;;;;3.20;2.80;;;22.00;99.90;;;;;;4974773;28;20175;-80
2022/08/20 03:01:54;;;;;;;3.83;3.23;;;22.00;99.90;;;;;;4974494;28;20913;-78
2022/08/20 03:04:20;;;;;;;3.90;3.00;;;22.10;99.90;;;;;;4992001;28;20586;-78
2022/08/20 03:06:46;;;;;;;2.97;2.20;;;22.10;99.90;;;;;;4992003;28;20510;-79
2022/08/20 03:09:11;;;;;;;3.23;2.77;;;22.10;99.90;;;;;;4974560;28;20173;-78
2022/08/20 03:11:38;;;;;;;3.03;2.43;;;22.20;99.90;;;;;;4958140;28;20182;-78
2022/08/20 03:14:05;;;;;;;3.80;2.70;;;22.20;99.90;;;;;;4991353;28;20195;-79
2022/08/20 03:16:31;;;;;;;6.03;2.53;;;22.20;99.90;;;;;;4983304;28;20622;-79
2022/08/20 03:18:57;;;;;;;2.40;2.20;;;22.30;99.90;;;;;;4984146;28;20583;-79
2022/08/20 03:21:23;;;;;;;2.60;2.40;;;22.30;99.90;;;;;;4973939;28;20574;-79
2022/08/20 03:23:49;;;;;;;2.47;2.27;;;22.30;99.90;;;;;;4974684;28;20175;-77
2022/08/20 03:26:15;;;;;;;4.50;2.93;;;22.30;99.90;;;;;;4974463;28;20225;-78
2022/08/20 03:28:42;;;;;;;3.47;2.30;;;22.40;99.90;;;;;;4991953;28;20167;-78
2022/08/20 03:31:09;;;;;;;2.40;2.20;;;22.40;99.90;;;;;;4957853;28;20601;-79
2022/08/20 03:33:35;;;;;;;2.73;2.47;;;22.40;99.90;;;;;;4991627;28;20566;-79
2022/08/20 03:36:00;;;;;;;3.70;2.30;;;22.40;99.90;;;;;;4974208;28;20625;-79
2022/08/20 03:38:26;;;;;;;5.57;2.10;;;22.50;99.90;;;;;;4974162;28;21119;-79
2022/08/20 03:40:52;;;;;;;3.57;1.97;;;22.50;99.90;;;;;;4995039;28;20573;-79
2022/08/20 03:43:18;;;;;;;2.83;2.63;;;22.50;99.90;;;;;;4994862;28;20167;-79
2022/08/20 03:45:45;;;;;;;4.43;1.73;;;22.50;99.90;;;;;;4962201;28;20245;-79
2022/08/20 03:48:15;;;;;;;3.80;1.90;;;22.50;99.90;;;;;;4995391;28;20574;-79
2022/08/20 03:50:42;;;;;;;4.07;2.70;;;22.50;99.90;;;;;;4962369;28;20578;-79
2022/08/20 03:53:12;;;;;;;4.83;2.70;;;22.50;99.90;;;;;;4963517;28;20590;-78
2022/08/20 03:55:38;;;;;;;3.20;2.90;;;22.60;99.90;;;;;;4995169;28;20636;-78
2022/08/20 03:58:07;;;;;;;3.13;1.97;;;22.60;99.90;;;;;;4995138;28;20951;-78
2022/08/20 04:00:47;;;;;;;3.57;2.50;;;22.60;99.90;;;;;;4977606;28;20588;-78
2022/08/20 04:03:14;;;;;;;2.07;1.87;;;22.60;99.90;;;;;;4994757;28;20740;-79
2022/08/20 04:05:40;;;;;;;2.53;1.93;;;22.60;99.90;;;;;;4977450;28;20615;-79
2022/08/20 04:08:09;;;;;;;3.73;2.00;;;22.60;99.90;;;;;;4961551;28;20648;-79
2022/08/20 04:10:36;;;;;;;3.40;2.43;;;22.60;99.90;;;;;;4961293;28;20603;-79
2022/08/20 04:13:02;;;;;;;3.67;2.63;;;22.60;99.90;;;;;;4960967;28;20990;-79
2022/08/20 04:15:28;;;;;;;2.37;1.93;;;22.50;99.90;;;;;;4994306;28;20688;-78
2022/08/20 04:17:54;;;;;;;4.77;1.90;;;22.50;99.90;;;;;;4992684;28;21024;-79
2022/08/20 04:20:24;;;;;;;3.00;2.67;;;22.40;99.90;;;;;;4968980;28;20202;-79
2022/08/20 04:22:55;;;;;;;2.90;2.10;;;22.40;99.90;;;;;;4960831;28;20175;-79
2022/08/20 04:25:20;;;;;;;2.60;2.17;;;22.30;99.90;;;;;;4976845;28;20607;-79
2022/08/20 04:27:49;;;;;;;3.20;2.70;;;22.30;99.90;;;;;;4977543;28;20967;-79
2022/08/20 04:30:17;;;;;;;3.90;2.13;;;22.20;99.90;;;;;;4994749;28;20174;-80
2022/08/20 04:32:43;;;;;;;4.50;2.43;;;22.10;99.90;;;;;;4994230;28;20574;-80
2022/08/20 04:35:14;;;;;;;3.37;2.60;;;22.00;99.90;;;;;;4976938;28;21345;-79
2022/08/20 04:37:40;;;;;;;3.20;2.90;;;21.90;99.90;;;;;;4977180;28;20566;-81
2022/08/20 04:42:55;;;;;;;4.63;3.33;;;21.80;99.90;;;;;;4994044;28;20562;-80
2022/08/20 04:45:22;;;;;;;5.10;2.37;;;21.70;99.90;;;;;;4976758;28;20686;-80
2022/08/20 04:47:49;;;;;;;3.03;1.90;;;21.70;99.90;;;;;;4976997;28;20577;-81
2022/08/20 04:50:16;;;;;;;2.80;2.17;;;21.60;99.90;;;;;;4977350;28;20575;-80
2022/08/20 04:52:42;;;;;;;3.10;2.63;;;21.60;99.90;;;;;;4959520;28;20735;-81
2022/08/20 04:55:09;;;;;;;2.03;1.83;;;21.60;99.90;;;;;;4993947;28;20590;-81
2022/08/20 04:57:37;;;;;;;3.07;2.30;;;21.50;99.90;;;;;;4994024;28;20591;-80
2022/08/20 05:00:14;;;;;;;2.80;2.27;;;21.50;99.90;;;;;;4976346;28;20597;-80
2022/08/20 05:02:40;;;;;;;3.60;3.20;;;21.50;99.90;;;;;;4993433;28;20705;-81
2022/08/20 05:05:07;;;;;;;3.27;2.77;;;21.50;99.90;;;;;;4960618;28;20610;-80
2022/08/20 05:07:39;;;;;;;2.97;2.70;;;21.50;99.90;;;;;;4993711;28;20586;-80
2022/08/20 05:10:06;;;;;;;4.30;3.30;;;21.50;99.90;;;;;;4993647;28;21142;-81
2022/08/20 05:12:31;;;;;;;3.87;3.57;;;21.50;99.90;;;;;;4993376;28;20581;-80
2022/08/20 05:14:57;;;;;;;6.47;4.77;;;21.50;99.90;;;;;;4976424;28;20629;-82
2022/08/20 05:17:23;;;;;;;6.40;5.80;;;21.50;99.90;;;;;;4993651;28;20292;-77
2022/08/20 05:19:51;;;;;;;7.30;6.70;;;21.50;99.90;;;;;;4960441;28;20856;-79
2022/08/20 05:22:17;;;;;;;7.30;6.17;;;21.50;99.90;;;;;;4993397;28;20176;-78
2022/08/20 05:24:43;;;;;;;8.10;7.33;;;21.50;99.90;;;;;;4944024;28;20602;-78
2022/08/20 05:27:09;;;;;;;10.93;9.83;;;21.50;99.90;;;;;;4976887;28;20902;-79
2022/08/20 05:29:35;;;;;;;11.20;10.20;;;21.50;99.90;;;;;;4994053;28;20629;-79
2022/08/20 05:32:01;;;;;;;10.87;9.87;;;21.50;99.90;;;;;;4960098;28;20571;-81
2022/08/20 05:34:27;;;;;;;12.40;10.43;;;21.50;99.90;;;;;;4966970;28;20669;-81
2022/08/20 05:36:53;;;;;;;12.63;11.43;;;21.60;99.90;;;;;;4990675;28;21062;-80
2022/08/20 05:39:21;;;;;;;12.50;11.40;;;21.60;99.90;;;;;;4975127;28;20568;-80
2022/08/20 05:41:49;;;;;;;11.83;10.63;;;21.60;99.90;;;;;;4976229;28;20571;-80
2022/08/20 05:44:16;;;;;;;13.10;11.90;;;21.60;99.90;;;;;;4975652;28;20599;-80
2022/08/20 05:46:44;;;;;;;12.30;11.03;;;21.60;99.90;;;;;;4985581;28;20564;-77
2022/08/20 05:49:16;;;;;;;11.97;10.70;;;21.50;99.90;;;;;;4983669;28;20567;-78
2022/08/20 05:51:42;;;;;;;12.17;11.10;;;21.60;99.90;;;;;;4987361;28;20580;-78
2022/08/20 05:54:08;;;;;;;12.00;11.00;;;21.60;99.90;;;;;;4979820;28;20572;-87
2022/08/20 05:56:34;;;;;;;12.90;11.30;;;21.60;99.90;;;;;;4976073;28;20631;-86
2022/08/20 05:59:03;;;;;;;11.87;10.77;;;21.60;99.90;;;;;;4959645;28;20579;-87
2022/08/20 06:01:31;;;;;;;12.67;11.33;;;21.60;99.90;;;;;;4974108;28;20973;-82
2022/08/20 06:06:41;;;;;;;12.33;11.20;;;21.60;99.90;;;;;;4957699;28;20603;-84
2022/08/20 06:09:07;;;;;;;9.60;8.80;;;21.70;99.90;;;;;;4958410;28;20579;-84
2022/08/20 06:11:33;;;;;;;10.90;10.00;;;21.70;99.90;;;;;;4939729;28;20670;-83
2022/08/20 06:13:59;;;;;;;10.10;9.10;;;21.60;99.90;;;;;;4972575;28;20595;-83
2022/08/20 06:16:25;;;;;;;10.60;9.60;;;21.70;99.90;;;;;;4974137;28;20258;-85
2022/08/20 06:18:51;;;;;;;11.10;10.07;;;21.60;99.90;;;;;;4978957;28;20563;-85
2022/08/20 06:21:17;;;;;;;11.27;10.13;;;21.60;99.90;;;;;;4955824;28;20988;-85
2022/08/20 06:23:42;;;;;;;11.77;10.77;;;21.70;99.90;;;;;;4955848;28;20563;-84
2022/08/20 06:26:08;;;;;;;12.23;10.37;;;21.60;99.90;;;;;;4973109;28;20651;-85
2022/08/20 06:28:35;;;;;;;11.63;10.47;;;21.70;99.90;;;;;;4939505;28;20187;-85
2022/08/20 06:31:01;;;;;;;13.03;11.60;;;21.70;99.90;;;;;;4972075;28;20578;-85
2022/08/20 06:33:27;;;;;;;12.33;11.13;;;21.70;99.90;;;;;;4955890;28;20575;-85
2022/08/20 06:35:54;;;;;;;12.37;11.27;;;21.70;99.90;;;;;;4973158;28;20701;-85
2022/08/20 06:38:20;;;;;;;12.60;11.07;;;21.70;99.90;;;;;;4973324;28;20599;-86
2022/08/20 06:40:46;;;;;;;10.87;10.07;;;21.70;99.90;;;;;;4955730;28;20571;-86
2022/08/20 06:43:12;;;;;;;12.93;11.60;;;21.70;99.90;;;;;;4955657;28;20585;-86
2022/08/20 06:45:38;;;;;;;12.77;11.47;;;21.70;99.90;;;;;;4955905;28;20195;-86
2022/08/20 06:48:11;;;;;;;12.80;10.20;;;21.80;99.90;;;;;;4955815;28;20606;-87
2022/08/20 06:50:42;;;;;;;10.73;9.83;;;21.70;99.90;;;;;;4972772;28;20650;-86
2022/08/20 06:53:10;;;;;;;11.83;10.17;;;21.80;99.90;;;;;;4956202;28;20583;-86
2022/08/20 06:55:38;;;;;;;10.83;9.73;;;21.80;99.90;;;;;;4944295;28;20638;-86
2022/08/20 06:58:06;;;;;;;12.03;9.77;;;21.90;99.90;;;;;;4972963;28;20630;-86
2022/08/20 07:00:35;;;;;;;10.43;9.53;;;22.00;99.90;;;;;;4972931;28;20571;-86
2022/08/20 07:03:01;;;;;;;11.43;10.23;;;22.00;99.90;;;;;;4939375;28;20584;-86
2022/08/20 07:05:29;;;;;;;10.57;9.57;;;22.10;99.90;;;;;;4972893;28;20599;-86
2022/08/20 07:07:54;;;;;;;10.40;9.37;;;22.20;99.90;;;;;;4955698;28;20619;-86
2022/08/20 07:10:23;;;;;;;9.77;8.60;;;22.40;99.90;;;;;;4955885;28;20666;-86
2022/08/20 07:12:49;;;;;;;9.87;8.97;;;22.80;99.90;;;;;;4940698;28;20258;-88
2022/08/20 07:15:17;;;;;;;8.40;7.60;;;23.20;99.90;;;;;;4942067;28;20626;-87
2022/08/20 07:17:51;;;;;;;9.23;8.47;;;23.50;99.90;;;;;;4943762;28;20575;-87
2022/08/20 07:20:18;;;;;;;8.10;7.30;;;23.70;99.90;;;;;;4960216;28;20583;-86
2022/08/20 07:22:44;;;;;;;8.20;7.40;;;24.20;99.90;;;;;;4959896;28;20670;-88
2022/08/20 07:25:14;;;;;;;9.17;8.37;;;24.80;99.90;;;;;;4959428;28;20694;-88
2022/08/20 07:27:41;;;;;;;8.97;8.07;;;25.50;99.90;;;;;;4959943;28;20575;-87
2022/08/20 07:33:14;;;;;;;6.47;5.87;;;27.10;99.90;;;;;;4944771;28;20694;-88
2022/08/20 07:35:40;;;;;;;8.17;6.50;;;28.10;99.90;;;;;;4961102;28;20618;-87
2022/08/20 07:38:12;;;;;;;7.30;6.70;;;29.00;99.90;;;;;;4962120;28;20614;-87
2022/08/20 07:40:38;;;;;;;6.67;6.00;;;29.80;99.90;;;;;;4977725;28;20958;-87
2022/08/20 07:43:03;;;;;;;5.60;5.13;;;30.60;99.90;;;;;;4959324;28;20575;-88
2022/08/20 07:45:29;;;;;;;5.83;5.33;;;31.20;99.90;;;;;;4976335;28;20195;-87
2022/08/20 07:48:06;;;;;;;6.80;4.67;;;31.80;99.90;;;;;;4976260;28;20173;-87
2022/08/20 07:50:31;;;;;;;4.60;4.20;;;32.10;99.90;;;;;;4983623;28;20567;-87
2022/08/20 07:52:59;;;;;;;4.57;4.17;;;32.60;99.90;;;;;;4947129;28;20689;-88
2022/08/20 07:55:26;;;;;;;3.80;3.50;;;33.10;99.90;;;;;;4962529;28;20199;-87
2022/08/20 07:57:51;;;;;;;3.37;3.00;;;33.30;99.90;;;;;;4960024;28;20576;-88
2022/08/20 08:00:20;;;;;;;5.00;3.50;;;33.30;99.90;;;;;;4959512;28;20562;-88
2022/08/20 08:02:46;;;;;;;4.07;3.67;;;33.50;99.90;;;;;;4942867;28;20573;-86
2022/08/20 08:05:14;;;;;;;5.87;4.07;;;33.80;99.90;;;;;;4958546;28;20701;-86
2022/08/20 08:07:40;;;;;;;3.53;3.13;;;34.10;99.90;;;;;;4980330;28;20980;-86
2022/08/20 08:10:10;;;;;;;4.33;4.03;;;34.30;99.90;;;;;;4958966;28;20566;-88
2022/08/20 08:12:40;;;;;;;4.70;3.80;;;34.30;99.90;;;;;;4958155;28;20568;-87
2022/08/20 08:15:11;;;;;;;3.97;3.57;;;34.00;98.90;;;;;;4958768;28;20619;-87
2022/08/20 08:17:37;;;;;;;4.83;4.33;;;33.50;97.60;;;;;;4958606;28;20629;-84
2022/08/20 08:20:06;;;;;;;6.43;5.40;;;32.90;97.10;;;;;;4958504;28;20564;-83
2022/08/20 08:22:32;;;;;;;6.13;5.53;;;32.30;96.70;;;;;;4958129;28;20571;-84
2022/08/20 08:25:01;;;;;;;6.70;5.67;;;31.60;96.80;;;;;;4942056;28;21153;-83
2022/08/20 08:27:33;;;;;;;5.63;4.93;;;30.90;96.70;;;;;;4941475;28;20184;-84
2022/08/20 08:30:03;;;;;;;5.20;4.80;;;30.20;96.70;;;;;;4942228;28;20572;-84
2022/08/20 08:32:31;;;;;;;5.40;4.90;;;29.50;97.20;;;;;;4974965;28;20567;-83
2022/08/20 08:34:57;;;;;;;5.10;4.17;;;28.90;98.00;;;;;;4977755;28;20598;-84
2022/08/20 08:37:23;;;;;;;5.70;5.10;;;28.40;98.80;;;;;;4942017;28;20629;-83
2022/08/20 08:39:49;;;;;;;6.03;4.80;;;28.00;99.30;;;;;;4941964;28;21130;-84
2022/08/20 08:42:28;;;;;;;6.63;5.70;;;27.60;99.80;;;;;;4975448;28;20250;-83
2022/08/20 08:44:54;;;;;;;5.60;4.40;;;27.30;99.90;;;;;;4946421;28;20636;-84
2022/08/20 08:47:34;;;;;;;6.17;4.60;;;27.00;99.90;;;;;;4975249;28;20630;-84
2022/08/20 08:50:06;;;;;;;5.63;4.90;;;26.80;99.90;;;;;;4973987;28;20582;-84
2022/08/20 08:52:35;;;;;;;5.90;3.83;;;26.70;99.90;;;;;;4942432;28;20953;-84
2022/08/20 08:55:04;;;;;;;7.43;5.43;;;26.70;99.90;;;;;;4942968;28;21092;-80
2022/08/20 08:57:31;;;;;;;6.07;5.07;;;26.60;99.90;;;;;;4941321;28;20698;-81
2022/08/20 09:00:08;;;;;;;5.67;4.80;;;26.60;99.90;;;;;;4957228;28;20594;-80
2022/08/20 09:02:35;;;;;;;8.37;6.30;;;26.50;99.90;;;;;;4956937;28;20603;-81
2022/08/20 09:05:09;;;;;;;7.50;5.33;;;26.40;99.90;;;;;;4941094;28;20606;-81
2022/08/20 09:07:36;;;;;;;7.27;5.83;;;26.40;99.90;;;;;;4974321;28;20577;-81
2022/08/20 09:10:03;;;;;;;7.30;5.63;;;26.40;99.90;;;;;;4957057;28;20650;-81
2022/08/20 09:12:28;;;;;;;5.93;5.10;;;26.30;99.90;;;;;;4956539;28;20579;-81
2022/08/20 09:14:54;;;;;;;9.23;5.43;;;26.30;99.90;;;;;;4940572;28;20645;-81
2022/08/20 09:17:22;;;;;;;7.17;6.07;;;26.40;99.90;;;;;;4974404;28;20191;-81
2022/08/20 09:19:50;;;;;;;8.90;5.80;;;26.30;99.90;;;;;;4975584;28;21128;-81
2022/08/20 09:22:20;;;;;;;8.97;7.40;;;26.30;99.90;;;;;;4960833;28;20571;-81
2022/08/20 09:24:45;;;;;;;10.90;8.30;;;26.20;99.90;;;;;;4957112;28;20697;-81
2022/08/20 09:27:12;;;;;;;7.50;6.77;;;26.20;99.90;;;;;;4956611;28;20654;-82
2022/08/20 09:29:38;;;;;;;6.93;6.20;;;26.20;99.90;;;;;;4957052;28;20582;-82
2022/08/20 09:32:18;;;;;;;8.07;7.27;;;26.20;99.90;;;;;;4956416;28;21200;-82
2022/08/20 09:34:47;;;;;;;8.70;5.80;;;26.10;99.90;;;;;;4956598;28;20598;-80
2022/08/20 09:37:14;;;;;;;8.90;6.13;;;26.20;99.90;;;;;;4956462;28;20971;-80
2022/08/20 09:39:40;;;;;;;8.10;6.80;;;26.20;99.90;;;;;;4956647;28;20598;-81
2022/08/20 09:42:09;;;;;;;8.63;6.10;;;26.20;99.90;;;;;;4956044;28;20582;-81
2022/08/20 09:44:35;;;;;;;7.53;6.90;;;26.30;99.90;;;;;;4940473;28;20626;-82
2022/08/20 09:47:00;;;;;;;7.93;7.07;;;26.30;99.90;;;;;;4973753;28;20579;-82
2022/08/20 09:49:26;;;;;;;7.17;6.57;;;26.30;99.90;;;;;;4956570;28;20585;-82
2022/08/20 09:51:52;;;;;;;8.27;7.33;;;26.30;99.90;;;;;;4973312;28;20206;-82
2022/08/20 09:54:19;;;;;;;9.50;8.60;;;26.20;99.90;;;;;;4956367;28;20622;-82
2022/08/20 09:56:45;;;;;;;10.47;8.50;;;26.10;99.90;;;;;;4962088;28;20627;-83
2022/08/20 09:59:14;;;;;;;8.30;7.50;;;26.00;99.90;;;;;;4977195;28;20571;-82
2022/08/20 10:01:41;;;;;;;10.23;8.30;;;25.90;99.90;;;;;;4957563;28;21124;-81
2022/08/20 10:04:07;;;;;;;8.80;7.07;;;25.70;99.90;;;;;;4975004;28;20571;-82
2022/08/20 10:06:38;;;;;;;6.00;5.47;;;25.70;99.90;;;;;;4957251;28;20581;-81
2022/08/20 10:09:04;;;;;;;8.07;7.27;;;25.50;99.90;;;;;;4973619;28;20164;-81
2022/08/20 10:11:30;;;;;;;9.67;6.80;;;25.40;99.90;;;;;;4973126;28;20567;-81
2022/08/20 10:13:57;;;;;;;8.63;7.57;;;25.30;99.90;;;;;;4940426;28;20583;-81
2022/08/20 10:16:23;;;;;;;8.57;6.63;;;25.30;99.90;;;;;;4974270;28;20689;-81
2022/08/20 10:18:49;;;;;;;8.17;6.20;;;25.30;99.90;;;;;;4983069;28;20598;-81
2022/08/20 10:21:16;;;;;;;9.53;8.00;;;25.30;99.90;;;;;;4985067;28;20890;-81
2022/08/20 10:23:42;;;;;;;8.13;6.67;;;25.30;99.90;;;;;;4959527;28;20193;-80
2022/08/20 10:26:09;;;;;;;6.97;6.27;;;25.30;99.90;;;;;;4975008;28;20641;-81
2022/08/20 10:28:35;;;;;;;6.23;5.67;;;25.30;99.90;;;;;;4975438;28;20589;-81
2022/08/20 10:31:03;;;;;;;8.73;5.97;;;25.30;99.90;;;;;;4992593;28;21128;-81
2022/08/20 10:33:29;;;;;;;8.27;6.30;;;25.30;99.90;;;;;;4963919;28;20585;-81
2022/08/20 10:35:54;;;;;;;8.80;5.77;;;25.40;99.90;;;;;;4942871;28;21219;-81
2022/08/20 10:38:20;;;;;;;5.53;4.97;;;25.40;99.90;;;;;;4975300;28;20640;-81
2022/08/20 10:40:46;;;;;;;9.17;5.83;;;25.50;99.90;;;;;;4975509;28;20167;-81
2022/08/20 10:43:12;;;;;;;5.80;5.20;;;25.50;99.90;;;;;;4975510;28;20322;-81
2022/08/20 10:45:37;;;;;;;7.80;5.13;;;25.60;99.90;;;;;;4992749;28;20187;-81
2022/08/20 10:48:03;;;;;;;7.03;5.17;;;25.70;99.90;;;;;;4975079;28;20190;-81
2022/08/20 10:50:29;;;;;;;8.00;5.80;;;25.70;99.90;;;;;;4974767;28;20167;-81
2022/08/20 10:52:55;;;;;;;5.60;4.70;;;25.80;99.90;;;;;;4992067;28;20924;-81
2022/08/20 10:55:21;;;;;;;6.93;5.53;;;25.80;99.90;;;;;;4958746;28;20279;-82
2022/08/20 10:57:46;;;;;;;5.50;4.53;;;25.80;99.90;;;;;;4974994;28;20202;-81
2022/08/20 11:00:15;;;;;;;8.23;5.60;;;25.80;99.90;;;;;;4967060;28;20175;-81
2022/08/20 11:02:42;;;;;;;6.30;5.23;;;25.70;99.90;;;;;;4942681;28;20175;-81
2022/08/20 11:05:08;;;;;;;5.90;4.80;;;25.80;99.90;;;;;;4992112;28;20616;-81
2022/08/20 11:07:40;;;;;;;6.47;5.03;;;26.00;99.90;;;;;;4993881;28;20570;-81
2022/08/20 11:10:07;;;;;;;7.30;4.93;;;26.30;99.90;;;;;;4997063;28;20669;-81
2022/08/20 11:12:34;;;;;;;6.80;5.80;;;26.50;99.90;;;;;;4991888;28;20929;-81
2022/08/20 11:15:00;;;;;;;6.77;4.57;;;26.60;99.90;;;;;;4991900;28;20669;-81
2022/08/20 11:17:29;;;;;;;7.53;3.67;;;26.80;99.90;;;;;;4974849;28;21003;-81
2022/08/20 11:19:56;;;;;;;4.70;3.40;;;26.80;99.90;;;;;;4992049;28;20175;-82
2022/08/20 11:22:23;;;;;;;4.90;4.00;;;26.90;99.90;;;;;;4990570;28;20625;-82
2022/08/20 11:24:49;;;;;;;8.70;5.10;;;27.10;99.90;;;;;;4991919;28;20606;-81
2022/08/20 11:27:21;;;;;;;7.20;5.70;;;27.40;99.90;;;;;;4974812;28;20923;-82
2022/08/20 11:29:47;;;;;;;5.23;4.03;;;27.50;99.90;;;;;;4974646;28;20669;-82
2022/08/20 11:32:13;;;;;;;6.13;4.90;;;27.60;99.90;;;;;;4974100;28;20737;-81
2022/08/20 11:34:39;;;;;;;6.17;5.00;;;27.60;99.90;;;;;;4974492;28;20703;-81
2022/08/20 11:37:04;;;;;;;4.67;3.93;;;27.90;99.90;;;;;;4974557;28;20202;-81
2022/08/20 11:39:30;;;;;;;5.20;4.43;;;28.10;99.90;;;;;;4974776;28;20173;-82
2022/08/20 11:41:56;;;;;;;7.07;5.07;;;28.20;99.90;;;;;;4974191;28;20226;-80
2022/08/20 11:44:22;;;;;;;5.50;4.07;;;28.40;99.90;;;;;;4942538;28;20187;-81
2022/08/20 11:46:48;;;;;;;8.83;5.70;;;28.50;99.90;;;;;;4998210;28;20182;-82
2022/08/20 11:49:14;;;;;;;7.53;5.37;;;28.60;99.90;;;;;;4990740;28;20209;-82
2022/08/20 11:51:40;;;;;;;5.83;4.63;;;28.70;99.90;;;;;;4974229;28;20570;-82
2022/08/20 11:54:05;;;;;;;8.00;5.27;;;28.70;99.90;;;;;;4958166;28;20176;-82
2022/08/20 11:56:31;;;;;;;4.90;4.40;;;28.90;99.90;;;;;;4974123;28;20201;-81
2022/08/20 11:58:58;;;;;;;7.83;5.50;;;29.20;99.90;;;;;;4991580;28;20225;-81
2022/08/20 12:01:24;;;;;;;5.63;5.00;;;29.60;99.90;;;;;;4975012;28;20578;-82
2022/08/20 12:03:50;;;;;;;9.20;5.80;;;30.00;99.90;;;;;;4977832;28;20585;-81
2022/08/20 12:06:15;;;;;;;9.40;7.67;;;30.20;99.90;;;;;;4978618;28;20253;-80
2022/08/20 12:08:41;;;;;;;7.57;6.63;;;30.30;99.10;;;;;;4979241;28;20571;-82
2022/08/20 12:11:07;;;;;;;5.90;4.80;;;30.30;98.00;;;;;;4996494;28;20190;-81
2022/08/20 12:13:35;;;;;;;6.10;4.70;;;30.20;97.10;;;;;;4961999;28;20214;-77
2022/08/20 12:16:03;;;;;;;5.67;4.93;;;30.20;96.70;;;;;;4977498;28;20641;-77
2022/08/20 12:18:32;;;;;;;6.10;4.80;;;30.20;96.30;;;;;;4977798;28;20677;-77
2022/08/20 12:20:58;;;;;;;7.13;5.03;;;30.00;95.50;;;;;;4993400;28;20718;-78
2022/08/20 12:23:24;;;;;;;5.33;4.83;;;29.90;95.80;;;;;;4965985;28;20167;-78
2022/08/20 12:25:50;;;;;;;8.00;6.30;;;29.80;96.00;;;;;;4977504;28;20197;-78
2022/08/20 12:28:16;;;;;;;7.30;6.60;;;29.90;96.60;;;;;;4994753;28;20578;-78
2022/08/20 12:30:42;;;;;;;8.97;8.07;;;30.00;96.80;;;;;;4994983;28;20174;-78
2022/08/20 12:33:07;;;;;;;7.30;6.47;;;30.20;96.70;;;;;;4961174;28;20998;-78
2022/08/20 12:35:35;;;;;;;10.50;9.20;;;30.20;95.50;;;;;;4994778;28;20711;-78
2022/08/20 12:38:04;;;;;;;10.63;9.63;;;30.20;95.00;;;;;;5003655;28;20171;-78
2022/08/20 12:40:31;;;;;;;9.20;8.20;;;30.20;94.30;;;;;;4994996;28;20630;-78
2022/08/20 12:42:58;;;;;;;8.37;7.57;;;30.20;94.30;;;;;;4960698;28;20677;-77
2022/08/20 12:45:24;;;;;;;8.87;7.97;;;30.10;94.00;;;;;;4961097;28;20612;-78
2022/08/20 12:47:50;;;;;;;8.83;7.13;;;29.90;93.50;;;;;;4976913;28;20582;-78
2022/08/20 12:50:20;;;;;;;7.37;5.80;;;29.80;93.20;;;;;;4977044;28;20582;-78
2022/08/20 12:52:47;;;;;;;7.20;6.40;;;29.60;92.50;;;;;;4976686;28;20174;-77
2022/08/20 12:55:15;;;;;;;10.50;6.33;;;29.40;92.40;;;;;;4994189;28;20601;-77
2022/08/20 12:57:47;;;;;;;8.23;7.10;;;29.30;92.40;;;;;;4976916;28;20617;-77